createdAt,value
2022-12-01T00:03:01.593Z,19.10
2022-12-01T00:06:05.111Z,20.38
2022-12-01T00:09:25.406Z,18.80
2022-12-01T00:12:28.054Z,21.42
2022-12-01T00:15:34.468Z,20.02
2022-12-01T00:18:36.946Z,19.55
2022-12-01T00:21:39.651Z,21.10
2022-12-01T00:24:42.211Z,20.15
2022-12-01T00:27:48.146Z,18.65
2022-12-01T00:30:52.134Z,19.75
2022-12-01T00:33:55.053Z,21.30
2022-12-01T00:36:58.042Z,19.83
2022-12-01T00:40:00.725Z,18.38
2022-12-01T00:43:03.458Z,19.42
2022-12-01T00:46:07.740Z,19.30
2022-12-01T00:49:12.499Z,18.48
2022-12-01T00:52:16.004Z,20.25
2022-12-01T00:55:18.636Z,20.10
2022-12-01T00:58:21.349Z,19.85
2022-12-01T01:01:25.393Z,20.52
2022-12-01T01:04:30.549Z,19.30
2022-12-01T01:07:33.234Z,20.73
2022-12-01T01:10:38.668Z,20.52
2022-12-01T01:13:41.402Z,19.63
2022-12-01T01:16:46.193Z,19.27
2022-12-01T01:19:49.028Z,21.85
2022-12-01T01:22:51.881Z,20.17
2022-12-01T01:25:54.506Z,19.83
2022-12-01T01:28:57.587Z,23.15
2022-12-01T01:32:01.514Z,19.55
2022-12-01T01:35:04.259Z,18.35
2022-12-01T01:38:06.910Z,20.42
2022-12-01T01:41:09.627Z,20.88
2022-12-01T01:44:30.961Z,20.45
2022-12-01T01:47:39.264Z,22.25
2022-12-01T01:50:42.476Z,20.08
2022-12-01T01:53:46.022Z,19.92
2022-12-01T01:56:49.297Z,20.77
2022-12-01T01:59:54.962Z,20.33
2022-12-01T02:02:59.041Z,20.55
2022-12-01T02:06:04.771Z,20.40
2022-12-01T02:09:07.757Z,20.77
2022-12-01T02:12:17.389Z,22.38
2022-12-01T02:15:24.151Z,21.38
2022-12-01T02:18:34.821Z,21.45
2022-12-01T02:21:45.221Z,22.60
2022-12-01T02:24:54.905Z,20.77
2022-12-01T02:28:11.489Z,21.50
2022-12-01T02:31:17.976Z,19.88
2022-12-01T02:34:24.978Z,21.45
2022-12-01T02:37:32.098Z,19.30
2022-12-01T02:40:39.421Z,21.45
2022-12-01T02:43:44.880Z,19.02
2022-12-01T02:46:51.661Z,20.67
2022-12-01T02:49:56.136Z,20.35
2022-12-01T02:52:59.698Z,19.52
2022-12-01T02:56:02.455Z,20.75
2022-12-01T02:59:06.873Z,20.33
2022-12-01T03:02:14.640Z,20.98
2022-12-01T03:05:19.830Z,22.95
2022-12-01T03:08:24.837Z,21.73
2022-12-01T03:11:31.919Z,22.35
2022-12-01T03:14:37.082Z,22.17
2022-12-01T03:17:44.551Z,20.67
2022-12-01T03:20:49.313Z,22.42
2022-12-01T03:23:52.993Z,20.20
2022-12-01T03:26:56.956Z,21.33
2022-12-01T03:30:01.972Z,20.48
2022-12-01T03:33:09.574Z,23.02
2022-12-01T03:36:14.966Z,21.85
2022-12-01T03:39:19.941Z,19.83
2022-12-01T03:42:24.659Z,20.75
2022-12-01T03:45:29.174Z,21.48
2022-12-01T03:48:33.162Z,19.23
2022-12-01T03:51:40.795Z,21.08
2022-12-01T03:54:47.203Z,20.38
2022-12-01T03:57:53.589Z,20.55
2022-12-01T04:00:57.610Z,20.35
2022-12-01T04:04:06.028Z,20.40
2022-12-01T04:07:13.277Z,20.85
2022-12-01T04:10:15.938Z,19.42
2022-12-01T04:13:22.857Z,21.92
2022-12-01T04:16:25.519Z,18.65
2022-12-01T04:19:29.537Z,22.80
2022-12-01T04:22:32.203Z,19.40
2022-12-01T04:25:34.801Z,21.42
2022-12-01T04:28:37.428Z,22.02
2022-12-01T04:31:40.340Z,21.58
2022-12-01T04:34:44.764Z,22.33
2022-12-01T04:37:47.402Z,21.77
2022-12-01T04:40:50.396Z,21.42
2022-12-01T04:43:53.478Z,20.67
2022-12-01T04:46:56.224Z,19.77
2022-12-01T04:50:00.481Z,19.75
2022-12-01T04:53:03.306Z,22.15
2022-12-01T04:56:06.338Z,21.92
2022-12-01T04:59:09.042Z,20.52
2022-12-01T05:02:11.643Z,20.63
2022-12-01T05:05:15.818Z,21.50
2022-12-01T05:08:18.456Z,20.65
2022-12-01T05:11:21.114Z,22.33
2022-12-01T05:14:23.756Z,22.15
2022-12-01T05:17:26.539Z,20.42
2022-12-01T05:20:48.099Z,23.05
2022-12-01T05:23:50.660Z,21.98
2022-12-01T05:26:53.275Z,24.30
2022-12-01T05:29:55.918Z,21.35
2022-12-01T05:32:58.832Z,21.88
2022-12-01T05:36:03.523Z,20.27
2022-12-01T05:39:06.238Z,22.70
2022-12-01T05:42:09.204Z,23.00
2022-12-01T05:45:12.051Z,23.58
2022-12-01T05:48:14.920Z,22.52
2022-12-01T05:51:19.418Z,21.38
2022-12-01T05:54:23.119Z,22.88
2022-12-01T05:57:26.229Z,20.08
2022-12-01T06:00:29.098Z,23.15
2022-12-01T06:03:31.693Z,21.67
2022-12-01T06:06:36.299Z,20.48
2022-12-01T06:09:38.909Z,22.30
2022-12-01T06:12:41.550Z,19.88
2022-12-01T06:15:44.226Z,21.80
2022-12-01T06:18:46.871Z,20.00
2022-12-01T06:21:50.906Z,21.20
2022-12-01T06:24:53.549Z,19.60
2022-12-01T06:27:56.723Z,19.58
2022-12-01T06:31:03.246Z,20.13
2022-12-01T06:34:06.487Z,20.42
2022-12-01T06:37:10.604Z,20.58
2022-12-01T06:40:13.517Z,20.10
2022-12-01T06:43:16.198Z,20.20
2022-12-01T06:46:18.935Z,20.52
2022-12-01T06:49:21.743Z,21.65
2022-12-01T06:52:25.780Z,20.50
2022-12-01T06:55:28.438Z,23.05
2022-12-01T06:58:31.133Z,21.35
2022-12-01T07:01:34.124Z,21.67
2022-12-01T07:04:36.801Z,22.67
2022-12-01T07:07:41.575Z,19.58
2022-12-01T07:10:44.212Z,20.15
2022-12-01T07:13:47.104Z,21.05
2022-12-01T07:16:49.889Z,21.38
2022-12-01T07:19:52.749Z,21.48
2022-12-01T07:22:56.730Z,20.83
2022-12-01T07:26:00.349Z,20.50
2022-12-01T07:29:02.911Z,21.95
2022-12-01T07:32:05.797Z,20.50
2022-12-01T07:35:10.139Z,21.10
2022-12-01T07:38:19.105Z,19.77
2022-12-01T07:41:24.598Z,23.55
2022-12-01T07:44:27.363Z,22.05
2022-12-01T07:47:29.954Z,22.33
2022-12-01T07:50:32.933Z,21.42
2022-12-01T07:53:37.145Z,19.35
2022-12-01T07:56:40.029Z,22.48
2022-12-01T07:59:42.677Z,21.02
2022-12-01T08:02:45.349Z,19.92
2022-12-01T08:05:56.230Z,20.98
2022-12-01T08:09:00.607Z,18.80
2022-12-01T08:12:03.240Z,21.35
2022-12-01T08:15:06.372Z,21.02
2022-12-01T08:18:09.012Z,21.50
2022-12-01T08:21:12.619Z,19.88
2022-12-01T08:24:16.577Z,19.73
2022-12-01T08:27:19.415Z,20.77
2022-12-01T08:30:22.195Z,20.02
2022-12-01T08:33:25.333Z,21.23
2022-12-01T08:36:28.148Z,19.85
2022-12-01T08:39:32.289Z,20.65
2022-12-01T08:42:35.031Z,21.25
2022-12-01T08:45:37.729Z,20.98
2022-12-01T08:48:40.668Z,19.90
2022-12-01T08:51:43.379Z,18.42
2022-12-01T08:54:47.407Z,15.45
2022-12-01T08:57:50.238Z,16.40
2022-12-01T09:00:52.876Z,13.85
2022-12-01T09:04:06.624Z,13.50
2022-12-01T09:07:10.973Z,14.10
2022-12-01T09:10:15.172Z,14.77
2022-12-01T09:13:17.914Z,14.38
2022-12-01T09:16:20.768Z,15.00
2022-12-01T09:19:25.074Z,14.35
2022-12-01T09:22:28.150Z,13.23
2022-12-01T09:25:32.329Z,13.00
2022-12-01T09:28:35.435Z,11.18
2022-12-01T09:31:38.320Z,11.07
2022-12-01T09:34:41.169Z,9.15
2022-12-01T09:37:43.920Z,13.65
2022-12-01T09:40:48.187Z,12.20
2022-12-01T09:43:54.715Z,12.80
2022-12-01T09:46:59.697Z,11.32
2022-12-01T09:50:04.064Z,11.95
2022-12-01T09:53:08.522Z,14.73
2022-12-01T09:56:19.528Z,13.57
2022-12-01T09:59:23.685Z,12.27
2022-12-01T10:02:33.010Z,11.50
2022-12-01T10:06:02.879Z,11.85
2022-12-01T10:09:11.476Z,12.70
2022-12-01T10:12:17.645Z,12.18
2022-12-01T10:15:26.099Z,12.10
2022-12-01T10:18:35.286Z,12.43
2022-12-01T10:21:48.922Z,13.50
2022-12-01T10:24:55.035Z,13.82
2022-12-01T10:28:12.114Z,13.00
2022-12-01T10:31:19.334Z,12.60
2022-12-01T10:34:23.608Z,13.27
2022-12-01T10:37:27.662Z,13.68
2022-12-01T10:40:34.490Z,13.70
2022-12-01T10:43:40.288Z,14.18
2022-12-01T10:46:45.392Z,12.90
2022-12-01T10:49:48.544Z,12.25
2022-12-01T10:52:51.544Z,12.82
2022-12-01T10:55:59.612Z,14.13
2022-12-01T10:59:06.239Z,13.07
2022-12-01T11:02:17.857Z,12.98
2022-12-01T11:05:22.321Z,13.38
2022-12-01T11:08:31.945Z,13.80
2022-12-01T11:11:36.860Z,13.68
2022-12-01T11:14:45.397Z,12.75
2022-12-01T11:17:48.479Z,12.90
2022-12-01T11:21:05.549Z,12.35
2022-12-01T11:24:17.097Z,12.80
2022-12-01T11:27:21.103Z,12.52
2022-12-01T11:30:26.097Z,11.13
2022-12-01T11:33:29.619Z,12.40
2022-12-01T11:36:38.559Z,11.27
2022-12-01T11:39:42.312Z,12.00
2022-12-01T11:42:48.359Z,10.70
2022-12-01T11:45:53.068Z,12.00
2022-12-01T11:48:58.234Z,12.45
2022-12-01T11:52:17.273Z,12.32
2022-12-01T11:55:21.214Z,12.40
2022-12-01T11:58:24.133Z,12.90
2022-12-01T12:01:32.925Z,10.52
2022-12-01T12:04:43.716Z,11.00
2022-12-01T12:07:50.882Z,11.15
2022-12-01T12:10:56.824Z,11.65
2022-12-01T12:14:06.363Z,10.63
2022-12-01T12:17:16.115Z,11.00
2022-12-01T12:20:26.418Z,10.65
2022-12-01T12:23:42.931Z,12.32
2022-12-01T12:26:51.110Z,12.75
2022-12-01T12:30:00.287Z,10.90
2022-12-01T12:33:14.899Z,9.82
2022-12-01T12:36:21.772Z,10.30
2022-12-01T12:39:30.427Z,11.15
2022-12-01T12:42:36.868Z,10.23
2022-12-01T12:45:45.052Z,9.18
2022-12-01T12:49:18.797Z,11.45
2022-12-01T12:52:22.269Z,10.63
2022-12-01T12:55:27.747Z,9.57
2022-12-01T12:58:35.708Z,10.05
2022-12-01T13:01:40.239Z,10.40
2022-12-01T13:04:50.175Z,9.90
2022-12-01T13:07:55.165Z,10.38
2022-12-01T13:11:00.405Z,10.50
2022-12-01T13:14:06.441Z,9.82
2022-12-01T13:17:15.484Z,10.75
2022-12-01T13:20:22.074Z,9.82
2022-12-01T13:23:25.101Z,9.18
2022-12-01T13:26:27.994Z,9.95
2022-12-01T13:29:32.076Z,9.25
2022-12-01T13:32:36.210Z,8.80
2022-12-01T13:35:40.602Z,10.07
2022-12-01T13:38:43.526Z,10.10
2022-12-01T13:41:46.421Z,9.10
2022-12-01T13:44:52.986Z,9.20
2022-12-01T13:47:56.855Z,8.68
2022-12-01T13:51:02.516Z,9.18
2022-12-01T13:54:06.154Z,8.05
2022-12-01T13:57:12.922Z,9.27
2022-12-01T14:00:23.807Z,8.63
2022-12-01T14:03:34.228Z,9.90
2022-12-01T14:06:46.179Z,9.13
2022-12-01T14:09:50.104Z,10.23
2022-12-01T14:12:54.027Z,10.18
2022-12-01T14:15:58.359Z,9.02
2022-12-01T14:19:01.201Z,9.70
2022-12-01T14:22:06.359Z,9.30
2022-12-01T14:25:23.340Z,9.77
2022-12-01T14:28:40.767Z,10.13
2022-12-01T14:32:02.167Z,10.98
2022-12-01T14:35:12.471Z,10.52
2022-12-01T14:38:16.879Z,10.07
2022-12-01T14:41:22.813Z,9.88
2022-12-01T14:44:30.928Z,10.50
2022-12-01T14:47:40.302Z,10.48
2022-12-01T14:50:46.746Z,10.27
2022-12-01T14:53:51.663Z,12.73
2022-12-01T14:57:05.629Z,10.98
2022-12-01T15:00:10.982Z,11.45
2022-12-01T15:03:15.544Z,10.80
2022-12-01T15:06:19.109Z,11.27
2022-12-01T15:09:39.022Z,11.30
2022-12-01T15:12:41.863Z,12.40
2022-12-01T15:15:50.437Z,12.10
2022-12-01T15:18:53.246Z,12.20
2022-12-01T15:21:55.930Z,11.52
2022-12-01T15:25:08.533Z,12.23
2022-12-01T15:28:13.584Z,13.25
2022-12-01T15:31:16.447Z,14.55
2022-12-01T15:34:20.837Z,13.07
2022-12-01T15:37:25.390Z,12.88
2022-12-01T15:43:58.046Z,15.43
2022-12-01T15:47:02.502Z,13.52
2022-12-01T15:50:07.790Z,14.07
2022-12-01T15:53:19.236Z,14.30
2022-12-01T15:56:28.287Z,13.75
2022-12-01T15:59:35.213Z,13.77
2022-12-01T16:02:37.982Z,13.40
2022-12-01T16:05:45.075Z,13.55
2022-12-01T16:08:53.869Z,12.10
2022-12-01T16:12:19.585Z,14.40
2022-12-01T16:15:23.339Z,13.45
2022-12-01T16:18:30.363Z,14.00
2022-12-01T16:21:35.295Z,12.55
2022-12-01T16:24:39.365Z,13.35
2022-12-01T16:27:50.627Z,13.43
2022-12-01T16:30:53.937Z,12.80
2022-12-01T16:34:18.525Z,13.65
2022-12-01T16:37:27.359Z,14.43
2022-12-01T16:40:30.213Z,13.23
2022-12-01T16:43:34.240Z,13.75
2022-12-01T16:46:37.019Z,12.32
2022-12-01T16:49:39.631Z,13.05
2022-12-01T16:52:45.017Z,12.63
2022-12-01T16:55:49.020Z,12.13
2022-12-01T16:58:53.167Z,12.50
2022-12-01T17:01:55.842Z,11.63
2022-12-01T17:04:59.691Z,12.73
2022-12-01T17:08:02.380Z,13.10
2022-12-01T17:11:06.874Z,13.20
2022-12-01T17:14:10.927Z,13.05
2022-12-01T17:17:13.574Z,12.45
2022-12-01T17:20:16.454Z,12.80
2022-12-01T17:23:19.122Z,11.73
2022-12-01T17:26:22.110Z,13.70
2022-12-01T17:29:26.377Z,13.68
2022-12-01T17:36:16.000Z,12.25
2022-12-01T17:39:19.278Z,12.98
2022-12-01T17:42:22.278Z,12.32
2022-12-01T17:45:26.430Z,12.50
2022-12-01T17:48:29.338Z,12.00
2022-12-01T17:51:32.021Z,11.63
2022-12-01T17:54:34.709Z,10.43
2022-12-01T17:57:37.364Z,11.10
2022-12-01T18:00:41.325Z,11.93
2022-12-01T18:03:44.403Z,10.80
2022-12-01T18:06:53.543Z,10.90
2022-12-01T18:09:56.931Z,11.60
2022-12-01T18:12:59.698Z,11.23
2022-12-01T18:16:06.141Z,11.40
2022-12-01T18:19:09.936Z,11.65
2022-12-01T18:22:12.543Z,11.57
2022-12-01T18:25:20.461Z,11.32
2022-12-01T18:28:23.216Z,10.35
2022-12-01T18:31:27.864Z,11.43
2022-12-01T18:34:30.685Z,10.70
2022-12-01T18:37:33.337Z,11.88
2022-12-01T18:40:37.004Z,12.00
2022-12-01T18:43:40.390Z,9.82
2022-12-01T18:46:44.804Z,11.02
2022-12-01T18:49:47.552Z,11.40
2022-12-01T18:52:50.269Z,11.30
2022-12-01T18:55:53.018Z,12.07
2022-12-01T18:58:56.046Z,10.38
2022-12-01T19:02:00.228Z,10.95
2022-12-01T19:05:02.926Z,9.70
2022-12-01T19:08:05.918Z,9.85
2022-12-01T19:11:09.114Z,10.45
2022-12-01T19:14:14.374Z,10.85
2022-12-01T19:17:18.491Z,10.48
2022-12-01T19:20:21.330Z,10.73
2022-12-01T19:23:24.075Z,9.23
2022-12-01T19:26:26.825Z,10.75
2022-12-01T19:29:29.559Z,10.32
2022-12-01T19:32:33.924Z,11.45
2022-12-01T19:35:36.824Z,10.73
2022-12-01T19:38:40.904Z,10.95
2022-12-01T19:41:44.559Z,11.27
2022-12-01T19:44:47.602Z,10.02
2022-12-01T19:47:53.500Z,10.07
2022-12-01T19:50:57.242Z,9.10
2022-12-01T19:54:00.804Z,10.00
2022-12-01T19:57:03.486Z,10.43
2022-12-01T20:00:06.778Z,9.57
2022-12-01T20:03:16.049Z,10.57
2022-12-01T20:06:19.849Z,10.25
2022-12-01T20:09:22.878Z,10.43
2022-12-01T20:12:25.563Z,10.32
2022-12-01T20:15:31.573Z,12.50
2022-12-01T20:18:36.304Z,10.38
2022-12-01T20:21:42.515Z,10.77
2022-12-01T20:24:45.283Z,10.45
2022-12-01T20:27:47.967Z,12.52
2022-12-01T20:30:50.817Z,11.77
2022-12-01T20:33:56.497Z,12.13
2022-12-01T20:36:59.414Z,11.10
2022-12-01T20:40:02.079Z,10.43
2022-12-01T20:43:04.795Z,11.63
2022-12-01T20:46:08.023Z,12.00
2022-12-01T20:49:12.263Z,11.38
2022-12-01T20:52:14.924Z,11.13
2022-12-01T20:55:17.969Z,13.07
2022-12-01T20:58:20.952Z,11.10
2022-12-01T21:01:23.859Z,12.70
2022-12-01T21:04:28.153Z,11.05
2022-12-01T21:07:31.431Z,10.82
2022-12-01T21:10:35.942Z,12.73
2022-12-01T21:13:39.170Z,11.48
2022-12-01T21:16:45.143Z,12.15
2022-12-01T21:19:53.578Z,12.18
2022-12-01T21:22:59.058Z,13.05
2022-12-01T21:26:01.881Z,12.10
2022-12-01T21:29:14.670Z,12.23
2022-12-01T21:32:18.371Z,12.35
2022-12-01T21:35:23.649Z,11.20
2022-12-01T21:38:26.300Z,13.05
2022-12-01T21:41:30.151Z,11.75
2022-12-01T21:44:36.621Z,13.15
2022-12-01T21:47:39.419Z,13.82
2022-12-01T21:50:44.755Z,14.40
2022-12-01T21:53:50.378Z,14.85
2022-12-01T21:56:55.540Z,14.43
2022-12-01T21:59:59.382Z,12.95
2022-12-01T22:03:07.147Z,14.32
2022-12-01T22:06:35.006Z,13.07
2022-12-01T22:09:37.663Z,13.40
2022-12-01T22:12:40.395Z,13.70
2022-12-01T22:15:43.370Z,13.73
2022-12-01T22:18:48.312Z,14.57
2022-12-01T22:21:53.838Z,11.52
2022-12-01T22:24:59.338Z,11.27
2022-12-01T22:28:03.409Z,12.30
2022-12-01T22:31:12.865Z,11.98
2022-12-01T22:34:34.121Z,11.50
2022-12-01T22:37:41.629Z,12.50
2022-12-01T22:40:46.615Z,12.20
2022-12-01T22:43:50.335Z,13.93
2022-12-01T22:46:53.223Z,12.82
2022-12-01T22:49:56.450Z,15.35
2022-12-01T22:53:15.517Z,14.75
2022-12-01T22:56:25.065Z,14.13
2022-12-01T22:59:30.465Z,14.90
2022-12-01T23:02:34.632Z,13.43
2022-12-01T23:05:38.858Z,15.85
2022-12-01T23:08:43.244Z,13.63
2022-12-01T23:11:46.317Z,14.57
2022-12-01T23:14:50.607Z,14.02
2022-12-01T23:17:53.639Z,15.02
2022-12-01T23:20:57.042Z,12.85
2022-12-01T23:25:44.074Z,14.32
2022-12-01T23:33:17.331Z,13.93
2022-12-01T23:36:25.450Z,14.05
2022-12-01T23:39:33.866Z,14.25
2022-12-01T23:42:39.534Z,15.40
2022-12-01T23:45:47.988Z,14.48
2022-12-01T23:48:53.382Z,13.95
2022-12-01T23:52:03.601Z,13.65
2022-12-01T23:55:19.731Z,14.50
2022-12-01T23:58:26.989Z,14.45
